createdAt,value
2019-03-26T06:29:14.065Z,18.57
2019-03-26T06:30:22.699Z,17.55
2019-03-26T06:31:29.502Z,20.68
2019-03-26T06:32:36.440Z,19.17
2019-03-26T06:33:43.301Z,20.27
2019-03-26T06:34:50.386Z,20.02
2019-03-26T06:35:57.456Z,21.05
2019-03-26T06:37:17.153Z,19.45
2019-03-26T06:38:13.242Z,16.37
2019-03-26T06:39:20.256Z,14.68
2019-03-26T06:40:27.354Z,15.08
2019-03-26T06:41:34.223Z,16.75
2019-03-26T06:42:41.142Z,15.43
2019-03-26T06:43:48.013Z,16.07
2019-03-26T06:44:54.899Z,16.42
2019-03-26T06:46:01.734Z,17.02
2019-03-26T06:47:09.235Z,17.00
2019-03-26T06:48:16.278Z,17.17
2019-03-26T06:49:23.093Z,17.57
2019-03-26T06:50:29.743Z,16.52
2019-03-26T06:51:36.686Z,17.15
2019-03-26T06:52:43.541Z,15.53
2019-03-26T06:53:50.514Z,14.90
2019-03-26T06:54:57.412Z,15.25
2019-03-26T06:56:04.322Z,15.13
2019-03-26T06:57:11.453Z,14.78
2019-03-26T06:58:18.704Z,14.58
2019-03-26T06:59:25.874Z,14.15
2019-03-26T07:00:33.553Z,13.15
2019-03-26T07:01:40.419Z,15.15
2019-03-26T07:02:47.581Z,13.08
2019-03-26T07:03:54.455Z,13.88
2019-03-26T07:05:01.358Z,15.68
2019-03-26T07:06:08.401Z,13.85
2019-03-26T07:07:16.063Z,13.95
2019-03-26T07:08:23.105Z,14.93
2019-03-26T07:09:30.111Z,13.00
2019-03-26T07:10:36.918Z,13.62
2019-03-26T07:11:43.978Z,14.55
2019-03-26T07:12:51.107Z,15.20
2019-03-26T07:13:58.209Z,14.70
2019-03-26T07:15:05.170Z,15.78
2019-03-26T07:16:12.075Z,15.80
2019-03-26T07:17:18.910Z,15.98
2019-03-26T07:18:25.885Z,15.95
2019-03-26T07:19:32.770Z,15.25
2019-03-26T07:20:39.727Z,16.95
2019-03-26T07:21:49.845Z,16.75
2019-03-26T07:22:55.290Z,15.13
2019-03-26T07:24:02.297Z,15.90
2019-03-26T07:25:10.312Z,15.85
2019-03-26T07:26:17.229Z,15.83
2019-03-26T07:27:24.166Z,15.50
2019-03-26T07:28:31.125Z,16.35
2019-03-26T07:29:38.371Z,17.27
2019-03-26T07:30:46.195Z,18.30
2019-03-26T07:31:53.211Z,17.80
2019-03-26T07:33:00.062Z,18.00
2019-03-26T07:34:07.341Z,17.52
2019-03-26T07:35:14.245Z,16.70
2019-03-26T07:36:21.243Z,16.67
2019-03-26T07:37:28.135Z,17.35
2019-03-26T07:38:35.016Z,17.02
2019-03-26T07:39:42.120Z,16.82
2019-03-26T07:40:48.987Z,16.42
2019-03-26T07:41:56.148Z,19.23
2019-03-26T07:43:03.123Z,17.00
2019-03-26T07:44:10.153Z,17.62
2019-03-26T07:45:17.113Z,17.32
2019-03-26T07:46:25.592Z,16.77
2019-03-26T07:47:32.648Z,16.57
2019-03-26T07:48:39.947Z,17.40
2019-03-26T07:49:46.962Z,16.25
2019-03-26T07:50:54.047Z,16.57
2019-03-26T07:52:01.099Z,16.60
2019-03-26T07:53:07.873Z,16.23
2019-03-26T07:54:14.851Z,15.85
2019-03-26T07:55:21.835Z,15.32
2019-03-26T07:56:28.940Z,15.35
2019-03-26T07:57:35.650Z,14.63
2019-03-26T07:58:42.726Z,13.28
2019-03-26T07:59:49.691Z,12.82
2019-03-26T08:00:56.590Z,14.18
2019-03-26T08:02:03.883Z,14.43
2019-03-26T08:03:10.876Z,14.23
2019-03-26T08:04:17.925Z,15.03
2019-03-26T08:05:29.672Z,14.83
2019-03-26T08:06:33.539Z,15.43
2019-03-26T08:07:40.463Z,13.70
2019-03-26T08:08:47.944Z,14.30
2019-03-26T08:09:55.127Z,12.68
2019-03-26T08:11:02.171Z,12.15
2019-03-26T08:12:09.273Z,12.30
2019-03-26T08:13:16.439Z,13.25
2019-03-26T08:14:23.464Z,11.90
2019-03-26T08:15:30.532Z,12.13
2019-03-26T08:16:37.381Z,12.95
2019-03-26T08:17:45.469Z,12.23
2019-03-26T08:18:52.589Z,12.88
2019-03-26T08:19:59.399Z,12.43
2019-03-26T08:21:06.510Z,12.98
2019-03-26T08:22:13.357Z,13.10
2019-03-26T08:23:21.943Z,11.93
2019-03-26T08:24:28.764Z,11.90
2019-03-26T08:25:35.847Z,12.63
2019-03-26T08:26:42.893Z,12.75
2019-03-26T08:27:49.915Z,12.68
2019-03-26T08:28:57.028Z,12.60
2019-03-26T08:30:04.180Z,12.75
2019-03-26T08:31:11.331Z,12.95
2019-03-26T08:32:18.331Z,12.63
2019-03-26T08:33:25.785Z,13.53
2019-03-26T08:34:33.058Z,13.72
2019-03-26T08:35:40.210Z,13.83
2019-03-26T08:36:47.142Z,13.60
2019-03-26T08:37:54.155Z,14.15
2019-03-26T08:39:01.268Z,12.98
2019-03-26T08:40:10.031Z,13.53
2019-03-26T08:41:17.032Z,13.22
2019-03-26T08:42:23.979Z,13.85
2019-03-26T08:43:31.090Z,12.25
2019-03-26T08:44:38.123Z,12.68
2019-03-26T08:45:46.043Z,13.80
2019-03-26T08:46:52.951Z,13.20
2019-03-26T08:47:59.964Z,12.85
2019-03-26T08:49:06.985Z,12.85
2019-03-26T08:50:14.348Z,13.70
2019-03-26T08:51:21.267Z,14.15
2019-03-26T08:52:28.198Z,13.53
2019-03-26T08:53:35.097Z,12.45
2019-03-26T08:54:42.085Z,11.68
2019-03-26T08:55:48.969Z,11.85
2019-03-26T08:56:55.943Z,11.60
2019-03-26T08:58:02.691Z,12.43
2019-03-26T08:59:09.782Z,12.13
2019-03-26T09:00:16.709Z,12.78
2019-03-26T09:01:23.804Z,11.95
2019-03-26T09:02:30.594Z,11.78
2019-03-26T09:03:38.268Z,11.97
2019-03-26T09:04:45.232Z,12.53
2019-03-26T09:05:52.135Z,12.00
2019-03-26T09:06:59.090Z,11.25
2019-03-26T09:08:06.086Z,11.10
2019-03-26T09:09:12.910Z,11.05
2019-03-26T09:10:20.040Z,10.53
2019-03-26T09:11:27.120Z,10.32
2019-03-26T09:12:33.880Z,10.48
2019-03-26T09:13:40.746Z,9.68
2019-03-26T09:14:47.844Z,9.93
2019-03-26T09:15:54.721Z,10.25
2019-03-26T09:17:01.738Z,10.13
2019-03-26T09:18:08.601Z,10.35
2019-03-26T09:19:15.652Z,10.45
2019-03-26T09:20:22.581Z,10.70
2019-03-26T09:21:32.491Z,10.55
2019-03-26T09:22:38.213Z,10.93
2019-03-26T09:23:45.214Z,11.28
2019-03-26T09:24:52.206Z,10.28
2019-03-26T09:25:59.528Z,10.32
2019-03-26T09:27:06.472Z,11.85
2019-03-26T09:28:13.477Z,11.75
2019-03-26T09:29:20.537Z,11.80
2019-03-26T09:30:27.492Z,11.78
2019-03-26T09:31:34.431Z,10.80
2019-03-26T09:32:41.655Z,11.68
2019-03-26T09:33:48.576Z,11.43
2019-03-26T09:34:55.683Z,11.48
2019-03-26T09:36:02.726Z,10.65
2019-03-26T09:37:09.744Z,12.43
2019-03-26T09:38:16.552Z,12.40
2019-03-26T09:39:23.679Z,12.75
2019-03-26T09:40:30.634Z,13.05
2019-03-26T09:41:37.534Z,13.22
2019-03-26T09:42:44.486Z,13.72
2019-03-26T09:43:51.377Z,13.28
2019-03-26T09:44:58.448Z,13.35
2019-03-26T09:46:05.477Z,14.10
2019-03-26T09:47:16.299Z,12.70
2019-03-26T09:48:21.182Z,14.53
2019-03-26T09:49:28.214Z,13.95
2019-03-26T09:50:38.371Z,13.43
2019-03-26T09:51:45.366Z,13.55
2019-03-26T09:52:52.327Z,14.50
2019-03-26T09:53:59.155Z,13.70
2019-03-26T09:55:06.560Z,14.75
2019-03-26T09:56:13.754Z,15.55
2019-03-26T09:57:20.550Z,15.48
2019-03-26T09:58:27.588Z,16.00
2019-03-26T09:59:34.666Z,12.10
2019-03-26T10:00:44.464Z,12.60
2019-03-26T10:01:51.638Z,12.43
2019-03-26T10:02:58.749Z,12.73
2019-03-26T10:04:05.683Z,11.50
2019-03-26T10:05:13.037Z,12.00
2019-03-26T10:06:23.647Z,11.90
2019-03-26T10:07:28.614Z,13.22
2019-03-26T10:08:35.854Z,12.10
2019-03-26T10:09:42.678Z,12.75
2019-03-26T10:10:49.552Z,13.40
2019-03-26T10:11:56.725Z,12.78
2019-03-26T10:13:03.547Z,12.35
2019-03-26T10:14:10.462Z,11.38
2019-03-26T10:15:17.667Z,12.15
2019-03-26T10:16:24.554Z,12.00
2019-03-26T10:17:31.609Z,12.25
2019-03-26T10:18:38.670Z,13.05
2019-03-26T10:19:45.466Z,12.88
2019-03-26T10:20:52.506Z,12.80
2019-03-26T10:21:59.654Z,12.88
2019-03-26T10:23:06.594Z,12.60
2019-03-26T10:24:13.707Z,12.88
2019-03-26T10:25:20.556Z,14.58
2019-03-26T10:26:27.680Z,12.65
2019-03-26T10:27:35.208Z,12.40
2019-03-26T10:28:42.308Z,11.12
2019-03-26T10:29:49.379Z,13.00
2019-03-26T10:30:56.379Z,13.08
2019-03-26T10:32:03.442Z,13.65
2019-03-26T10:33:11.566Z,12.18
2019-03-26T10:34:18.695Z,13.60
2019-03-26T10:35:25.903Z,11.65
2019-03-26T10:36:32.925Z,12.25
2019-03-26T10:37:39.915Z,11.85
2019-03-26T10:38:47.097Z,12.45
2019-03-26T10:39:54.076Z,10.78
2019-03-26T10:41:01.115Z,11.12
2019-03-26T10:42:08.052Z,12.10
2019-03-26T10:43:15.222Z,12.30
2019-03-26T10:44:22.687Z,11.35
2019-03-26T10:45:30.146Z,11.03
2019-03-26T10:46:37.125Z,12.10
2019-03-26T10:47:44.345Z,11.53
2019-03-26T10:48:51.569Z,11.50
2019-03-26T10:49:58.547Z,12.47
2019-03-26T10:51:10.162Z,12.65
2019-03-26T10:52:17.262Z,11.83
2019-03-26T10:53:24.529Z,12.15
2019-03-26T10:54:31.422Z,11.05
2019-03-26T10:55:38.628Z,11.35
2019-03-26T10:56:45.544Z,10.13
2019-03-26T10:57:52.671Z,9.78
2019-03-26T10:58:59.649Z,9.13
2019-03-26T11:00:07.385Z,7.45
2019-03-26T11:01:14.809Z,7.00
2019-03-26T11:02:21.662Z,8.55
2019-03-26T11:03:28.575Z,9.00
2019-03-26T11:04:35.614Z,9.23
2019-03-26T11:05:42.771Z,7.67
2019-03-26T11:06:49.761Z,9.40
2019-03-26T11:07:56.973Z,10.82
2019-03-26T11:09:18.865Z,9.05
2019-03-26T11:10:14.415Z,8.13
2019-03-26T11:11:21.500Z,8.63
2019-03-26T11:12:28.505Z,8.30
2019-03-26T11:13:35.511Z,8.53
2019-03-26T11:14:42.401Z,8.40
2019-03-26T11:15:49.442Z,8.98
2019-03-26T11:16:56.236Z,9.78
2019-03-26T11:18:03.273Z,9.13
2019-03-26T11:19:11.199Z,8.33
2019-03-26T11:20:18.184Z,8.83
2019-03-26T11:21:25.398Z,7.85
2019-03-26T11:22:32.482Z,8.50
2019-03-26T11:23:39.530Z,8.43
2019-03-26T11:24:46.547Z,8.18
2019-03-26T11:25:53.662Z,9.30
2019-03-26T11:27:00.840Z,9.65
2019-03-26T11:28:08.044Z,7.47
2019-03-26T11:29:14.997Z,8.53
2019-03-26T11:30:22.105Z,8.80
2019-03-26T11:31:30.263Z,8.03
2019-03-26T11:32:37.413Z,8.00
2019-03-26T11:33:44.607Z,8.30
2019-03-26T11:34:51.775Z,9.30
2019-03-26T11:35:59.266Z,8.40
2019-03-26T11:37:06.301Z,7.67
2019-03-26T11:38:13.163Z,8.23
2019-03-26T11:39:32.078Z,8.50
2019-03-26T11:40:28.897Z,8.05
2019-03-26T11:41:35.963Z,6.85
2019-03-26T11:42:42.934Z,7.97
2019-03-26T11:43:50.019Z,8.23
2019-03-26T11:44:59.190Z,6.62
2019-03-26T11:46:05.552Z,7.15
2019-03-26T11:47:12.415Z,7.55
2019-03-26T11:48:19.401Z,8.00
2019-03-26T11:49:26.054Z,7.45
2019-03-26T11:50:33.094Z,8.40
2019-03-26T11:51:40.043Z,12.37
2019-03-26T11:52:47.300Z,8.88
2019-03-26T11:53:55.233Z,5.67
2019-03-26T11:55:02.674Z,7.15
2019-03-26T11:56:09.611Z,7.08
2019-03-26T11:57:16.586Z,7.90
2019-03-26T11:58:30.573Z,8.60
2019-03-26T11:59:32.270Z,8.23
2019-03-26T12:00:39.985Z,8.63
2019-03-26T12:01:47.029Z,5.97
2019-03-26T12:02:54.000Z,8.15
2019-03-26T12:04:01.209Z,8.63
2019-03-26T12:05:08.889Z,7.78
2019-03-26T12:06:15.863Z,8.23
2019-03-26T12:07:22.904Z,7.92
2019-03-26T12:08:29.764Z,7.00
2019-03-26T12:09:46.215Z,7.70
2019-03-26T12:10:45.184Z,7.00
2019-03-26T12:11:52.228Z,7.72
2019-03-26T12:12:59.306Z,8.30
2019-03-26T12:14:06.627Z,7.70
2019-03-26T12:15:14.138Z,7.67
2019-03-26T12:16:21.086Z,7.75
2019-03-26T12:17:28.052Z,6.35
2019-03-26T12:18:35.054Z,6.40
2019-03-26T12:19:42.163Z,7.28
2019-03-26T12:20:50.339Z,5.95
2019-03-26T12:21:57.022Z,6.00
2019-03-26T12:23:04.002Z,6.55
2019-03-26T12:24:11.015Z,6.92
2019-03-26T12:25:18.003Z,6.70
2019-03-26T12:26:27.354Z,6.30
2019-03-26T12:27:36.507Z,6.55
2019-03-26T12:28:42.956Z,7.37
2019-03-26T12:29:51.054Z,6.15
2019-03-26T12:30:58.102Z,6.55
2019-03-26T12:32:04.906Z,7.37
2019-03-26T12:33:12.022Z,7.10
2019-03-26T12:34:18.881Z,7.75
2019-03-26T12:35:30.724Z,7.25
2019-03-26T12:36:40.130Z,7.10
2019-03-26T12:37:46.570Z,8.38
2019-03-26T12:38:53.626Z,7.47
2019-03-26T12:40:00.857Z,8.05
2019-03-26T12:41:08.164Z,7.12
2019-03-26T12:42:15.161Z,7.62
2019-03-26T12:43:22.510Z,7.20
2019-03-26T12:44:29.728Z,6.33
2019-03-26T12:45:36.766Z,7.20
2019-03-26T12:46:43.791Z,5.87
2019-03-26T12:47:50.544Z,5.30
2019-03-26T12:48:57.315Z,5.87
2019-03-26T12:50:04.393Z,5.70
2019-03-26T12:51:11.511Z,6.55
2019-03-26T12:52:18.507Z,5.67
2019-03-26T12:53:26.365Z,4.45
2019-03-26T12:54:33.287Z,4.65
2019-03-26T12:55:40.451Z,4.92
2019-03-26T12:56:48.559Z,4.83
2019-03-26T12:57:55.711Z,4.40
2019-03-26T12:59:02.852Z,5.15
2019-03-26T13:00:10.251Z,4.58
2019-03-26T13:01:17.180Z,4.12
2019-03-26T13:02:24.318Z,4.72
2019-03-26T13:03:31.390Z,5.22
2019-03-26T13:04:38.210Z,3.87
2019-03-26T13:05:45.218Z,4.25
2019-03-26T13:06:52.269Z,4.42
2019-03-26T13:07:59.181Z,4.72
2019-03-26T13:09:08.414Z,3.33
2019-03-26T13:10:15.833Z,4.12
2019-03-26T13:11:22.762Z,4.17
2019-03-26T13:12:29.918Z,4.35
2019-03-26T13:13:36.817Z,4.92
2019-03-26T13:14:43.856Z,3.50
2019-03-26T13:15:50.936Z,3.52
2019-03-26T13:16:58.104Z,3.10
2019-03-26T13:18:05.115Z,3.45
2019-03-26T13:19:12.082Z,4.83
2019-03-26T13:20:19.114Z,4.70
2019-03-26T13:21:26.155Z,4.45
2019-03-26T13:22:33.253Z,4.75
2019-03-26T13:23:40.175Z,4.62
2019-03-26T13:24:47.105Z,3.75
2019-03-26T13:25:53.942Z,3.80
2019-03-26T13:27:00.881Z,3.75
2019-03-26T13:28:07.883Z,4.30
2019-03-26T13:29:14.827Z,4.42
2019-03-26T13:30:22.160Z,4.50
2019-03-26T13:31:29.076Z,3.87
2019-03-26T13:32:36.045Z,4.00
2019-03-26T13:33:42.889Z,4.10
2019-03-26T13:34:50.019Z,4.30
2019-03-26T13:35:58.242Z,4.30
2019-03-26T13:37:05.224Z,4.25
2019-03-26T13:38:11.928Z,3.80
2019-03-26T13:39:18.914Z,4.35
2019-03-26T13:40:27.496Z,4.28
2019-03-26T13:41:34.615Z,5.42
2019-03-26T13:42:41.707Z,5.45
2019-03-26T13:43:48.969Z,5.60
2019-03-26T13:44:56.051Z,5.67
2019-03-26T13:46:03.683Z,6.00
2019-03-26T13:47:11.316Z,6.08
2019-03-26T13:48:18.202Z,5.80
2019-03-26T13:49:25.264Z,8.18
2019-03-26T13:50:32.177Z,8.30
2019-03-26T13:51:39.518Z,7.37
2019-03-26T13:52:46.685Z,7.90
2019-03-26T13:53:53.679Z,7.37
2019-03-26T13:55:01.576Z,6.97
2019-03-26T13:56:08.440Z,6.42
2019-03-26T13:57:15.565Z,6.45
2019-03-26T13:58:22.466Z,7.47
2019-03-26T13:59:29.514Z,6.60
2019-03-26T14:00:37.984Z,6.15
2019-03-26T14:01:45.084Z,4.95
2019-03-26T14:02:51.930Z,6.00
2019-03-26T14:03:59.006Z,7.00
2019-03-26T14:05:07.989Z,7.30
2019-03-26T14:06:14.865Z,6.22
2019-03-26T14:07:21.924Z,7.05
2019-03-26T14:08:28.858Z,6.45
2019-03-26T14:09:35.819Z,6.92
2019-03-26T14:10:42.775Z,7.53
2019-03-26T14:11:50.810Z,6.70
2019-03-26T14:12:57.668Z,7.35
2019-03-26T14:14:04.947Z,6.25
2019-03-26T14:15:12.082Z,6.83
2019-03-26T14:16:19.108Z,6.55
2019-03-26T14:17:26.258Z,6.25
2019-03-26T14:18:33.115Z,6.80
2019-03-26T14:19:40.297Z,6.72
2019-03-26T14:20:47.336Z,6.42
2019-03-26T14:21:54.301Z,6.92
2019-03-26T14:23:01.290Z,6.22
2019-03-26T14:24:08.168Z,6.25
2019-03-26T14:25:15.322Z,5.83
2019-03-26T14:26:22.434Z,6.17
2019-03-26T14:27:29.396Z,5.70
2019-03-26T14:28:36.279Z,5.17
2019-03-26T14:29:43.327Z,6.40
2019-03-26T14:30:50.608Z,6.17
2019-03-26T14:31:57.583Z,5.67
2019-03-26T14:33:04.544Z,6.30
2019-03-26T14:34:11.540Z,5.62
2019-03-26T14:35:18.835Z,6.30
2019-03-26T14:36:25.885Z,4.97
2019-03-26T14:37:34.171Z,5.75
2019-03-26T14:38:41.137Z,4.58
2019-03-26T14:39:48.215Z,5.65
2019-03-26T14:40:55.762Z,6.37
2019-03-26T14:42:02.729Z,5.65
2019-03-26T14:43:09.989Z,5.65
2019-03-26T14:44:17.013Z,7.50
2019-03-26T14:45:23.990Z,9.28
2019-03-26T14:46:30.867Z,9.50
2019-03-26T14:47:38.041Z,6.35
2019-03-26T14:48:44.911Z,5.40
2019-03-26T14:49:52.091Z,6.45
2019-03-26T14:50:59.139Z,7.37
2019-03-26T14:52:06.140Z,6.90
2019-03-26T14:53:13.224Z,6.20
2019-03-26T14:54:20.256Z,6.83
2019-03-26T14:55:27.227Z,5.92
2019-03-26T14:56:35.324Z,5.42
2019-03-26T14:57:42.325Z,7.00
2019-03-26T14:58:49.514Z,6.35
2019-03-26T14:59:56.611Z,6.25
2019-03-26T15:01:03.930Z,6.08
2019-03-26T15:02:11.191Z,4.80
2019-03-26T15:03:18.194Z,5.53
2019-03-26T15:04:25.750Z,5.85
2019-03-26T15:05:32.929Z,5.37
2019-03-26T15:06:40.162Z,4.22
2019-03-26T15:07:47.197Z,4.58
2019-03-26T15:08:54.242Z,4.70
2019-03-26T15:10:01.515Z,4.70
2019-03-26T15:11:11.451Z,4.97
2019-03-26T15:12:18.857Z,5.05
2019-03-26T15:13:26.041Z,5.45
2019-03-26T15:14:33.252Z,4.25
2019-03-26T15:15:40.348Z,5.37
2019-03-26T15:16:47.719Z,6.30
2019-03-26T15:17:54.718Z,5.30
2019-03-26T15:19:02.073Z,2.87
2019-03-26T15:20:09.712Z,4.75
2019-03-26T15:21:17.247Z,4.12
2019-03-26T15:22:24.833Z,3.87
2019-03-26T15:23:31.824Z,4.37
2019-03-26T15:24:39.412Z,4.45
2019-03-26T15:25:47.058Z,2.87
2019-03-26T15:26:54.614Z,1.90
2019-03-26T15:28:01.752Z,2.00
2019-03-26T15:29:08.960Z,2.17
2019-03-26T15:30:16.276Z,1.95
2019-03-26T15:31:23.544Z,2.00
2019-03-26T15:32:30.815Z,1.60
2019-03-26T15:33:37.943Z,2.55
2019-03-26T15:34:45.094Z,1.75
2019-03-26T15:35:52.164Z,1.57
2019-03-26T15:36:59.160Z,2.10
2019-03-26T15:38:06.952Z,2.05
2019-03-26T15:39:13.880Z,1.82
2019-03-26T15:40:22.225Z,1.92
2019-03-26T15:41:30.466Z,2.55
2019-03-26T15:42:39.115Z,2.47
2019-03-26T15:43:46.642Z,3.52
2019-03-26T15:44:53.977Z,2.80
2019-03-26T15:46:01.322Z,2.85
2019-03-26T15:47:08.386Z,2.60
2019-03-26T15:48:15.808Z,2.90
2019-03-26T15:49:23.111Z,2.47
2019-03-26T15:50:42.014Z,2.90
2019-03-26T15:51:49.438Z,2.15
2019-03-26T15:52:56.767Z,2.87
2019-03-26T15:54:04.023Z,3.20
2019-03-26T15:55:11.740Z,3.08
2019-03-26T15:56:20.004Z,3.20
2019-03-26T15:57:27.167Z,2.90
2019-03-26T15:58:34.291Z,3.10
2019-03-26T15:59:42.149Z,4.08
2019-03-26T16:00:49.413Z,2.85
2019-03-26T16:01:56.407Z,3.80
2019-03-26T16:03:03.474Z,4.45
2019-03-26T16:04:11.639Z,2.75
2019-03-26T16:05:19.071Z,6.78
2019-03-26T16:06:26.567Z,7.33
2019-03-26T16:07:33.979Z,4.97
2019-03-26T16:08:41.185Z,4.75
2019-03-26T16:09:48.401Z,5.20
2019-03-26T16:10:55.880Z,4.80
2019-03-26T16:12:04.621Z,4.20
2019-03-26T16:13:12.443Z,4.60
2019-03-26T16:14:20.007Z,4.55
2019-03-26T16:15:28.370Z,4.90
2019-03-26T16:16:35.575Z,8.45
2019-03-26T16:17:42.615Z,6.12
2019-03-26T16:18:49.901Z,6.47
2019-03-26T16:19:56.946Z,5.95
2019-03-26T16:21:04.559Z,5.47
2019-03-26T16:22:11.547Z,5.20
2019-03-26T16:23:18.678Z,6.10
2019-03-26T16:24:25.878Z,6.37
2019-03-26T16:25:33.310Z,5.50
2019-03-26T16:26:40.294Z,5.60
2019-03-26T16:27:47.656Z,5.58
2019-03-26T16:28:55.333Z,6.25
2019-03-26T16:30:02.918Z,5.17
2019-03-26T16:31:11.354Z,4.87
2019-03-26T16:32:19.071Z,4.80
2019-03-26T16:33:26.658Z,5.12
2019-03-26T16:34:34.239Z,4.80
2019-03-26T16:35:41.525Z,5.17
2019-03-26T16:36:58.779Z,4.92
2019-03-26T16:37:58.755Z,5.35
2019-03-26T16:39:08.056Z,5.70
2019-03-26T16:40:16.050Z,5.37
2019-03-26T16:41:23.605Z,4.78
2019-03-26T16:42:31.413Z,4.95
2019-03-26T16:43:41.826Z,4.80
2019-03-26T16:44:49.576Z,4.55
2019-03-26T16:45:57.078Z,5.05
2019-03-26T16:47:04.435Z,4.65
2019-03-26T16:48:12.028Z,5.28
2019-03-26T16:49:19.331Z,5.75
2019-03-26T16:50:26.870Z,5.83
2019-03-26T16:51:34.526Z,5.60
2019-03-26T16:52:42.155Z,5.92
2019-03-26T16:53:49.637Z,5.30
2019-03-26T16:54:57.317Z,5.67
2019-03-26T16:56:04.862Z,5.53
2019-03-26T16:57:12.420Z,6.17
2019-03-26T16:58:19.843Z,7.30
2019-03-26T16:59:28.831Z,7.12
2019-03-26T17:00:36.956Z,6.05
2019-03-26T17:01:44.684Z,7.53
2019-03-26T17:02:52.242Z,7.08
2019-03-26T17:03:59.891Z,8.33
2019-03-26T17:05:07.945Z,7.22
2019-03-26T17:06:16.185Z,7.75
2019-03-26T17:07:23.854Z,7.62
2019-03-26T17:08:31.678Z,6.10
2019-03-26T17:09:39.206Z,6.37
2019-03-26T17:10:48.565Z,6.53
2019-03-26T17:12:02.987Z,6.30
2019-03-26T17:13:05.452Z,5.72
2019-03-26T17:14:13.295Z,5.85
2019-03-26T17:15:21.284Z,5.37
2019-03-26T17:16:29.518Z,5.75
2019-03-26T17:17:36.957Z,5.50
2019-03-26T17:18:44.439Z,5.47
2019-03-26T17:19:52.676Z,5.60
2019-03-26T17:21:00.245Z,5.95
2019-03-26T17:22:07.550Z,6.08
2019-03-26T17:23:15.217Z,6.80
2019-03-26T17:24:22.574Z,5.78
2019-03-26T17:25:30.106Z,5.53
2019-03-26T17:26:37.654Z,6.53
2019-03-26T17:27:45.283Z,6.85
2019-03-26T17:28:52.925Z,7.25
2019-03-26T17:30:00.675Z,7.58
2019-03-26T17:31:08.606Z,6.83
2019-03-26T17:32:16.239Z,6.70
2019-03-26T17:33:24.608Z,7.30
2019-03-26T17:34:32.283Z,6.87
2019-03-26T17:35:39.848Z,6.22
2019-03-26T17:36:47.393Z,7.03
2019-03-26T17:37:59.974Z,7.62
2019-03-26T17:39:07.394Z,7.28
2019-03-26T17:40:14.954Z,7.12
2019-03-26T17:41:22.288Z,7.17
2019-03-26T17:42:29.622Z,7.25
2019-03-26T17:43:37.125Z,7.17
2019-03-26T17:44:44.663Z,7.40
2019-03-26T17:45:52.026Z,7.62
2019-03-26T17:46:59.724Z,7.62
2019-03-26T17:48:07.243Z,9.00
2019-03-26T17:49:14.895Z,8.05
2019-03-26T17:50:22.493Z,8.80
2019-03-26T17:51:30.564Z,9.80
2019-03-26T17:52:38.073Z,8.50
2019-03-26T17:53:45.693Z,9.35
2019-03-26T17:54:53.431Z,9.45
2019-03-26T17:56:00.965Z,8.45
2019-03-26T17:57:09.211Z,9.05
2019-03-26T17:58:17.487Z,7.87
2019-03-26T17:59:25.988Z,7.75
2019-03-26T18:00:42.736Z,7.92
2019-03-26T18:01:50.497Z,8.38
2019-03-26T18:02:58.187Z,8.35
2019-03-26T18:04:06.134Z,7.85
2019-03-26T18:05:26.252Z,8.43
2019-03-26T18:06:34.829Z,8.43
2019-03-26T18:07:42.474Z,8.43
2019-03-26T18:08:50.365Z,8.30
2019-03-26T18:09:58.291Z,9.40
2019-03-26T18:11:05.875Z,10.28
2019-03-26T18:12:13.448Z,8.90
2019-03-26T18:13:21.001Z,10.45
2019-03-26T18:14:28.541Z,10.68
2019-03-26T18:15:36.055Z,11.63
2019-03-26T18:16:43.841Z,11.68
2019-03-26T18:17:51.772Z,10.43
2019-03-26T18:18:59.349Z,9.90
2019-03-26T18:20:07.341Z,8.70
2019-03-26T18:21:15.112Z,9.60
2019-03-26T18:22:22.739Z,7.30
2019-03-26T18:23:30.192Z,8.93
2019-03-26T18:24:38.664Z,9.00
2019-03-26T18:25:46.465Z,7.90
2019-03-26T18:26:54.099Z,8.10
2019-03-26T18:28:02.380Z,7.75
2019-03-26T18:29:10.502Z,6.65
2019-03-26T18:30:19.434Z,6.37
2019-03-26T18:31:28.355Z,7.35
2019-03-26T18:32:36.012Z,6.55
2019-03-26T18:33:43.715Z,5.30
2019-03-26T18:34:51.209Z,5.45
2019-03-26T18:36:00.454Z,5.70
2019-03-26T18:37:07.939Z,6.50
2019-03-26T18:38:15.645Z,5.83
2019-03-26T18:39:23.315Z,5.65
2019-03-26T18:40:31.487Z,4.75
2019-03-26T18:41:39.228Z,5.15
2019-03-26T18:42:48.447Z,4.50
2019-03-26T18:43:57.244Z,4.80
2019-03-26T18:45:04.944Z,4.50
2019-03-26T18:46:13.021Z,4.92
2019-03-26T18:47:21.122Z,4.92
2019-03-26T18:48:28.903Z,4.83
2019-03-26T18:49:36.554Z,5.15
2019-03-26T18:50:44.428Z,4.00
2019-03-26T18:51:52.175Z,4.85
2019-03-26T18:52:59.940Z,3.50
2019-03-26T18:54:07.538Z,4.60
2019-03-26T18:55:15.811Z,4.33
2019-03-26T18:56:24.447Z,3.72
2019-03-26T18:57:31.756Z,3.87
2019-03-26T18:58:39.610Z,3.98
2019-03-26T18:59:47.512Z,4.95
2019-03-26T19:00:55.197Z,4.08
2019-03-26T19:02:02.947Z,3.72
2019-03-26T19:03:13.018Z,3.72
2019-03-26T19:04:20.785Z,4.10
2019-03-26T19:05:28.944Z,2.55
2019-03-26T19:06:39.634Z,3.15
2019-03-26T19:07:47.649Z,3.30
2019-03-26T19:08:55.666Z,3.58
2019-03-26T19:10:03.654Z,4.17
2019-03-26T19:11:11.454Z,3.80
2019-03-26T19:12:19.146Z,4.50
2019-03-26T19:13:27.098Z,3.60
2019-03-26T19:14:35.781Z,2.83
2019-03-26T19:15:46.684Z,3.92
2019-03-26T19:16:54.439Z,4.30
2019-03-26T19:18:02.197Z,4.70
2019-03-26T19:19:11.376Z,6.03
2019-03-26T19:20:20.362Z,4.80
2019-03-26T19:21:28.142Z,4.50
2019-03-26T19:22:35.687Z,5.05
2019-03-26T19:23:43.618Z,4.97
2019-03-26T19:24:51.443Z,4.95
2019-03-26T19:26:00.553Z,5.60
2019-03-26T19:27:09.241Z,5.35
2019-03-26T19:28:20.143Z,4.47
2019-03-26T19:29:29.071Z,4.60
2019-03-26T19:30:36.924Z,5.35
2019-03-26T19:31:44.796Z,4.78
2019-03-26T19:32:57.646Z,4.62
2019-03-26T19:34:04.742Z,5.08
2019-03-26T19:35:13.484Z,4.55
2019-03-26T19:36:21.504Z,4.17
2019-03-26T19:37:29.264Z,4.60
2019-03-26T19:38:37.019Z,4.60
2019-03-26T19:39:44.842Z,4.78
2019-03-26T19:40:53.308Z,3.58
2019-03-26T19:42:00.976Z,3.95
2019-03-26T19:43:11.141Z,3.95
2019-03-26T19:44:18.320Z,4.42
2019-03-26T19:45:25.703Z,4.33
2019-03-26T19:46:33.498Z,4.25
2019-03-26T19:47:41.090Z,3.65
2019-03-26T19:48:48.950Z,3.70
2019-03-26T19:49:57.923Z,4.10
2019-03-26T19:51:05.494Z,3.87
2019-03-26T19:52:13.763Z,3.85
2019-03-26T19:53:21.712Z,3.42
2019-03-26T19:54:29.551Z,3.58
2019-03-26T19:55:37.528Z,3.95
2019-03-26T19:56:46.547Z,4.03
2019-03-26T19:58:23.921Z,3.72
2019-03-26T19:59:43.066Z,4.08
2019-03-26T20:00:51.713Z,3.15
2019-03-26T20:02:00.267Z,3.80
2019-03-26T20:03:07.879Z,4.25
2019-03-26T20:04:15.766Z,3.83
2019-03-26T20:05:23.706Z,4.30
2019-03-26T20:06:31.471Z,4.25
2019-03-26T20:07:39.108Z,3.85
2019-03-26T20:08:47.308Z,4.53
2019-03-26T20:09:55.007Z,5.85
2019-03-26T20:11:05.120Z,5.55
2019-03-26T20:12:15.437Z,5.35
2019-03-26T20:13:24.878Z,4.85
2019-03-26T20:14:32.666Z,5.17
2019-03-26T20:15:40.135Z,4.80
2019-03-26T20:16:47.684Z,4.70
2019-03-26T20:18:18.558Z,5.28
2019-03-26T20:19:28.522Z,5.30
2019-03-26T20:20:36.429Z,5.03
2019-03-26T20:21:43.966Z,4.60
2019-03-26T20:22:51.577Z,4.83
2019-03-26T20:23:59.306Z,5.28
2019-03-26T20:25:07.155Z,5.25
2019-03-26T20:26:14.703Z,5.00
2019-03-26T20:27:22.299Z,4.67
2019-03-26T20:28:30.610Z,5.33
2019-03-26T20:29:39.537Z,5.35
2019-03-26T20:30:47.245Z,5.10
2019-03-26T20:31:55.189Z,4.50
2019-03-26T20:33:03.314Z,4.30
2019-03-26T20:34:11.294Z,5.00
2019-03-26T20:35:19.687Z,4.58
2019-03-26T20:36:27.290Z,4.72
2019-03-26T20:37:35.335Z,4.47
2019-03-26T20:38:43.195Z,5.10
2019-03-26T20:39:51.150Z,4.67
2019-03-26T20:40:58.853Z,4.87
2019-03-26T20:42:06.829Z,4.65
2019-03-26T20:43:14.629Z,4.37
2019-03-26T20:44:22.261Z,4.25
2019-03-26T20:45:29.853Z,4.53
2019-03-26T20:46:37.430Z,4.53
2019-03-26T20:47:45.240Z,4.83
2019-03-26T20:48:55.002Z,4.42
2019-03-26T20:50:02.734Z,4.60
2019-03-26T20:51:10.378Z,4.72
2019-03-26T20:52:18.178Z,5.10
2019-03-26T20:53:25.733Z,4.55
2019-03-26T20:54:35.840Z,4.80
2019-03-26T20:55:53.730Z,4.08
2019-03-26T20:56:54.904Z,4.60
2019-03-26T20:58:03.025Z,3.60
2019-03-26T20:59:11.055Z,4.90
2019-03-26T21:00:28.458Z,4.65
2019-03-26T21:01:37.377Z,3.65
2019-03-26T21:02:45.414Z,3.35
2019-03-26T21:03:53.250Z,3.77
2019-03-26T21:05:01.057Z,3.42
2019-03-26T21:06:08.708Z,3.70
2019-03-26T21:07:16.529Z,3.58
2019-03-26T21:08:26.553Z,3.58
2019-03-26T21:09:34.571Z,3.60
2019-03-26T21:10:42.753Z,3.83
2019-03-26T21:11:51.700Z,3.83
2019-03-26T21:13:00.477Z,4.05
2019-03-26T21:14:08.271Z,3.87
2019-03-26T21:15:16.126Z,3.95
2019-03-26T21:16:23.765Z,3.83
2019-03-26T21:17:31.458Z,3.00
2019-03-26T21:18:38.992Z,3.45
2019-03-26T21:19:46.741Z,3.42